createdAt,value
2022-11-21T00:02:00.549Z,81.28
2022-11-21T00:07:02.091Z,81.49
2022-11-21T00:12:03.727Z,81.59
2022-11-21T00:17:05.180Z,81.15
2022-11-21T00:22:06.738Z,81.39
2022-11-21T00:27:08.267Z,81.10
2022-11-21T00:32:09.737Z,81.06
2022-11-21T00:37:11.237Z,81.17
2022-11-21T00:42:16.008Z,81.06
2022-11-21T00:47:17.791Z,80.99
2022-11-21T00:52:19.544Z,80.67
2022-11-21T00:57:21.076Z,81.50
2022-11-21T01:02:22.830Z,80.78
2022-11-21T01:07:25.258Z,81.07
2022-11-21T01:12:26.783Z,80.97
2022-11-21T01:17:28.414Z,81.21
2022-11-21T01:22:29.913Z,80.52
2022-11-21T01:27:31.466Z,80.82
2022-11-21T01:32:33.029Z,80.95
2022-11-21T01:37:34.560Z,80.72
2022-11-21T01:43:02.702Z,80.26
2022-11-21T01:48:04.390Z,80.36
2022-11-21T01:53:06.092Z,79.92
2022-11-21T01:58:11.562Z,80.52
2022-11-21T02:03:19.989Z,80.21
2022-11-21T02:08:23.698Z,80.35
2022-11-21T02:13:25.330Z,80.33
2022-11-21T02:18:26.847Z,80.58
2022-11-21T02:23:41.921Z,80.16
2022-11-21T02:28:44.248Z,80.06
2022-11-21T02:33:45.726Z,80.21
2022-11-21T02:38:47.457Z,80.01
2022-11-21T02:43:55.447Z,79.81
2022-11-21T02:48:58.519Z,79.56
2022-11-21T02:54:00.036Z,79.76
2022-11-21T02:59:01.628Z,79.24
2022-11-21T03:04:03.143Z,79.87
2022-11-21T03:09:04.669Z,79.74
2022-11-21T03:14:06.239Z,79.30
2022-11-21T03:19:08.066Z,79.89
2022-11-21T03:24:09.814Z,80.04
2022-11-21T03:29:11.325Z,79.44
2022-11-21T03:34:12.781Z,79.13
2022-11-21T03:39:14.300Z,79.67
2022-11-21T03:44:16.127Z,79.76
2022-11-21T03:49:17.651Z,79.96
2022-11-21T03:54:19.148Z,79.64
2022-11-21T03:59:20.717Z,79.75
2022-11-21T04:04:22.240Z,79.85
2022-11-21T04:09:23.704Z,79.97
2022-11-21T04:14:25.135Z,79.91
2022-11-21T04:19:26.654Z,79.78
2022-11-21T04:24:28.342Z,79.36
2022-11-21T04:29:30.092Z,79.59
2022-11-21T04:34:31.614Z,79.62
2022-11-21T04:39:33.112Z,79.01
2022-11-21T04:44:34.596Z,79.87
2022-11-21T04:49:36.114Z,79.61
2022-11-21T04:54:37.621Z,79.17
2022-11-21T04:59:39.086Z,79.25
2022-11-21T05:04:43.280Z,79.59
2022-11-21T05:09:44.789Z,79.03
2022-11-21T05:14:46.243Z,78.80
2022-11-21T05:19:47.708Z,78.97
2022-11-21T05:24:49.183Z,78.56
2022-11-21T05:29:50.743Z,78.94
2022-11-21T05:34:52.135Z,78.97
2022-11-21T05:39:53.519Z,78.75
2022-11-21T05:44:54.835Z,78.70
2022-11-21T05:49:56.166Z,79.56
2022-11-21T05:54:57.513Z,79.66
2022-11-21T05:59:58.867Z,79.97
2022-11-21T06:05:00.180Z,79.66
2022-11-21T06:10:01.522Z,79.54
2022-11-21T06:15:03.093Z,79.17
2022-11-21T06:20:04.932Z,79.12
2022-11-21T06:25:07.671Z,79.00
2022-11-21T06:30:09.497Z,79.43
2022-11-21T06:35:10.934Z,79.21
2022-11-21T06:40:12.495Z,80.37
2022-11-21T06:45:13.907Z,79.89
2022-11-21T06:50:15.640Z,80.48
2022-11-21T06:55:17.028Z,79.42
2022-11-21T07:00:18.637Z,80.05
2022-11-21T07:05:20.149Z,80.67
2022-11-21T07:10:21.482Z,80.69
2022-11-21T07:15:22.834Z,80.27
2022-11-21T07:20:24.246Z,79.86
2022-11-21T07:25:25.614Z,80.12
2022-11-21T07:30:27.417Z,80.50
2022-11-21T07:35:29.007Z,79.70
2022-11-21T07:40:33.118Z,80.77
2022-11-21T07:45:34.563Z,80.24
2022-11-21T07:50:36.098Z,80.86
2022-11-21T07:55:40.636Z,80.58
2022-11-21T08:00:45.279Z,80.45
2022-11-21T08:05:47.316Z,80.66
2022-11-21T08:10:48.695Z,80.58
2022-11-21T08:15:50.056Z,79.94
2022-11-21T08:20:51.411Z,79.39
2022-11-21T08:25:52.812Z,79.33
2022-11-21T08:30:54.329Z,79.42
2022-11-21T08:35:55.690Z,79.85
2022-11-21T08:41:17.824Z,79.44
2022-11-21T08:46:19.336Z,79.44
2022-11-21T08:51:21.222Z,79.69
2022-11-21T08:56:22.901Z,79.83
2022-11-21T09:01:24.266Z,79.92
2022-11-21T09:06:25.757Z,79.75
2022-11-21T09:11:27.324Z,79.39
2022-11-21T09:16:47.411Z,79.57
2022-11-21T09:21:50.069Z,79.50
2022-11-21T09:26:51.471Z,79.29
2022-11-21T09:31:52.831Z,79.59
2022-11-21T09:36:55.403Z,79.48
2022-11-21T09:42:34.262Z,79.35
2022-11-21T09:47:45.066Z,78.88
2022-11-21T09:53:21.040Z,79.34
2022-11-21T09:58:34.460Z,79.29
2022-11-21T10:03:42.295Z,79.16
2022-11-21T10:08:58.291Z,79.06
2022-11-21T10:14:16.411Z,78.44
2022-11-21T10:19:36.653Z,78.44
2022-11-21T10:25:11.889Z,77.85
2022-11-21T10:30:17.671Z,77.63
2022-11-21T10:35:30.352Z,77.39
2022-11-21T10:40:44.135Z,77.24
2022-11-21T10:45:45.497Z,77.06
2022-11-21T10:50:55.221Z,76.46
2022-11-21T10:56:01.426Z,76.58
2022-11-21T11:01:03.207Z,76.11
2022-11-21T11:06:04.602Z,75.97
2022-11-21T11:11:07.702Z,76.00
2022-11-21T11:16:11.853Z,75.18
2022-11-21T11:21:20.471Z,74.92
2022-11-21T11:26:27.882Z,74.12
2022-11-21T11:31:40.345Z,74.22
2022-11-21T11:36:53.433Z,73.99
2022-11-21T11:42:33.146Z,73.83
2022-11-21T11:47:42.882Z,73.71
2022-11-21T11:53:10.650Z,73.54
2022-11-21T11:58:21.654Z,72.91
2022-11-21T12:03:40.605Z,73.08
2022-11-21T12:08:56.118Z,72.92
2022-11-21T12:14:09.326Z,72.25
2022-11-21T12:19:16.926Z,72.09
2022-11-21T12:24:20.948Z,72.06
2022-11-21T12:29:41.032Z,71.99
2022-11-21T12:35:07.541Z,71.67
2022-11-21T12:40:27.158Z,71.10
2022-11-21T12:45:47.192Z,70.77
2022-11-21T12:51:33.901Z,70.76
2022-11-21T12:56:47.403Z,70.67
2022-11-21T13:02:27.400Z,70.93
2022-11-21T13:07:31.354Z,70.16
2022-11-21T13:12:40.413Z,70.28
2022-11-21T13:17:49.561Z,70.05
2022-11-21T13:22:54.020Z,69.99
2022-11-21T13:28:16.523Z,69.66
2022-11-21T13:33:48.126Z,69.26
2022-11-21T13:38:55.621Z,68.66
2022-11-21T13:44:30.009Z,68.76
2022-11-21T13:49:43.790Z,68.55
2022-11-21T13:55:07.656Z,68.54
2022-11-21T14:00:32.298Z,68.17
2022-11-21T14:05:53.983Z,68.45
2022-11-21T14:10:58.199Z,67.79
2022-11-21T14:16:18.247Z,67.85
2022-11-21T14:21:27.034Z,67.70
2022-11-21T14:26:31.357Z,67.72
2022-11-21T14:31:45.321Z,67.56
2022-11-21T14:36:46.981Z,67.56
2022-11-21T14:41:51.258Z,67.81
2022-11-21T14:47:06.921Z,67.68
2022-11-21T14:52:17.885Z,67.44
2022-11-21T14:57:32.117Z,67.61
2022-11-21T15:02:34.155Z,67.89
2022-11-21T15:07:44.099Z,68.02
2022-11-21T15:12:48.472Z,67.77
2022-11-21T15:18:24.369Z,67.88
2022-11-21T15:23:32.121Z,68.02
2022-11-21T15:28:33.539Z,68.61
2022-11-21T15:39:22.600Z,69.01
2022-11-21T15:44:24.016Z,69.04
2022-11-21T15:54:47.294Z,69.82
2022-11-21T15:57:13.221Z,69.59
2022-11-21T15:59:49.704Z,69.86
2022-11-21T16:04:52.621Z,70.01
2022-11-21T16:09:55.837Z,70.00
2022-11-21T16:14:57.210Z,70.08
2022-11-21T16:19:58.579Z,70.06
2022-11-21T16:24:59.927Z,70.58
2022-11-21T16:30:01.390Z,70.71
2022-11-21T16:35:03.108Z,70.66
2022-11-21T16:40:05.142Z,70.55
2022-11-21T16:45:06.826Z,70.74
2022-11-21T16:50:08.335Z,70.75
2022-11-21T16:55:09.901Z,71.31
2022-11-21T17:00:14.506Z,71.17
2022-11-21T17:05:16.470Z,71.62
2022-11-21T17:10:17.953Z,71.20
2022-11-21T17:15:19.411Z,71.71
2022-11-21T17:20:20.950Z,72.19
2022-11-21T17:25:22.506Z,72.55
2022-11-21T17:30:24.291Z,72.59
2022-11-21T17:35:25.744Z,72.38
2022-11-21T17:40:27.170Z,72.06
2022-11-21T17:45:28.700Z,72.42
2022-11-21T17:50:30.240Z,72.49
2022-11-21T17:55:31.627Z,72.04
2022-11-21T18:00:33.043Z,72.32
2022-11-21T18:05:34.440Z,72.70
2022-11-21T18:10:43.317Z,71.88
2022-11-21T18:15:45.500Z,72.86
2022-11-21T18:20:46.983Z,72.90
2022-11-21T18:25:48.366Z,73.02
2022-11-21T18:30:49.713Z,72.54
2022-11-21T18:35:51.143Z,72.73
2022-11-21T18:40:52.615Z,72.69
2022-11-21T18:45:54.005Z,72.64
2022-11-21T18:50:55.434Z,72.31
2022-11-21T18:55:59.015Z,72.18
2022-11-21T19:01:02.065Z,72.65
2022-11-21T19:06:07.189Z,72.30
2022-11-21T19:11:11.254Z,73.18
2022-11-21T19:16:15.576Z,72.71
2022-11-21T19:21:17.412Z,72.95
2022-11-21T19:26:21.532Z,73.35
2022-11-21T19:31:23.058Z,73.02
2022-11-21T19:36:24.670Z,73.19
2022-11-21T19:41:26.710Z,73.03
2022-11-21T19:46:33.511Z,73.38
2022-11-21T19:51:41.132Z,73.39
2022-11-21T19:56:42.550Z,74.01
2022-11-21T20:01:48.150Z,73.73
2022-11-21T20:06:52.520Z,73.18
2022-11-21T20:11:53.922Z,73.55
2022-11-21T20:16:55.817Z,73.42
2022-11-21T20:21:57.358Z,73.44
2022-11-21T20:26:59.309Z,72.88
2022-11-21T20:32:02.311Z,73.16
2022-11-21T20:37:04.631Z,73.02
2022-11-21T20:42:06.703Z,72.43
2022-11-21T20:47:09.046Z,72.78
2022-11-21T20:57:31.918Z,72.78
2022-11-21T21:02:33.258Z,72.61
2022-11-21T21:07:34.818Z,72.49
2022-11-21T21:12:36.203Z,72.63
2022-11-21T21:17:37.533Z,72.67
2022-11-21T21:22:39.617Z,73.62
2022-11-21T21:27:40.998Z,74.03
2022-11-21T21:32:42.548Z,74.07
2022-11-21T21:37:43.901Z,74.91
2022-11-21T21:42:45.251Z,75.46
2022-11-21T21:47:46.582Z,75.47
2022-11-21T21:52:47.997Z,76.17
2022-11-21T21:57:52.466Z,76.39
2022-11-21T22:02:54.405Z,76.93
2022-11-21T22:07:55.816Z,76.59
2022-11-21T22:12:57.149Z,76.37
2022-11-21T22:17:58.536Z,77.09
2022-11-21T22:23:00.726Z,76.88
2022-11-21T22:28:02.162Z,77.73
2022-11-21T22:33:03.672Z,77.52
2022-11-21T22:38:05.003Z,77.12
2022-11-21T22:43:06.920Z,77.19
2022-11-21T22:48:08.379Z,77.23
2022-11-21T22:53:09.848Z,77.22
2022-11-21T22:58:11.350Z,77.68
2022-11-21T23:03:12.735Z,77.52
2022-11-21T23:08:14.135Z,78.02
2022-11-21T23:13:15.520Z,78.29
2022-11-21T23:18:16.883Z,77.70
2022-11-21T23:23:19.242Z,78.28
2022-11-21T23:28:20.632Z,78.77
2022-11-21T23:33:22.239Z,78.81
2022-11-21T23:38:23.636Z,79.07
2022-11-21T23:43:25.100Z,78.34
2022-11-21T23:48:27.257Z,78.57
2022-11-21T23:53:28.753Z,78.70
2022-11-21T23:58:30.168Z,79.01
